Time;durP1;ratioP1;P1;durP2;ratioP2;P2;SDS_P1;SDS_P2;PMS_P1;PMS_P2;Temp;Humidity;BMP_temperature;BMP_pressure;BME280_temperature;BME280_humidity;BME280_pressure;Samples;Min_cycle;Max_cycle;Signal;HPM_P1;HPM_P2
2021/04/23 00:00:34;;;;;;;18.48;5.40;;;;;;;11.60;40.07;101947.69;5052293;28;20049;-73
2021/04/23 00:03:22;;;;;;;18.15;5.47;;;;;;;11.39;40.90;101947.06;5052673;28;20452;-75
2021/04/23 00:05:53;;;;;;;17.90;5.35;;;;;;;11.33;41.70;101943.50;5053099;28;20068;-76
2021/04/23 00:08:21;;;;;;;15.35;5.88;;;;;;;11.30;40.94;101944.09;5034472;28;20060;-75
2021/04/23 00:10:49;;;;;;;15.20;5.57;;;;;;;11.22;41.20;101943.91;5033797;28;20049;-75
2021/04/23 00:13:18;;;;;;;20.00;5.50;;;;;;;11.43;40.98;101945.38;5034948;28;20053;-76
2021/04/23 00:15:45;;;;;;;20.15;4.93;;;;;;;11.17;41.11;101953.03;5053230;28;20292;-75
2021/04/23 00:18:12;;;;;;;17.58;5.35;;;;;;;11.35;42.40;101945.97;5035487;28;20057;-77
2021/04/23 00:20:39;;;;;;;16.02;5.43;;;;;;;11.32;41.02;101950.16;5052140;28;20498;-74
2021/04/23 00:23:09;;;;;;;17.80;5.80;;;;;;;11.34;41.22;101952.63;5052266;28;20063;-74
2021/04/23 00:25:37;;;;;;;15.57;5.37;;;;;;;11.26;41.23;101954.06;5034415;28;20052;-74
2021/04/23 00:28:08;;;;;;;21.00;5.57;;;;;;;11.01;41.56;101956.19;5051395;28;20754;-75
2021/04/23 00:30:39;;;;;;;17.02;5.50;;;;;;;11.21;41.44;101945.00;5051676;28;20056;-74
2021/04/23 00:33:06;;;;;;;21.08;5.53;;;;;;;11.13;41.80;101949.19;5051646;28;20053;-74
2021/04/23 00:35:36;;;;;;;20.45;5.68;;;;;;;10.92;42.11;101958.72;5052061;28;20056;-75
2021/04/23 00:38:05;;;;;;;16.75;5.85;;;;;;;10.97;42.05;101946.81;5052029;28;20056;-74
2021/04/23 00:40:41;;;;;;;22.50;6.15;;;;;;;10.74;42.95;101942.03;5052336;28;20045;-74
2021/04/23 00:43:08;;;;;;;18.70;5.60;;;;;;;10.83;42.91;101946.66;5034082;28;20400;-74
2021/04/23 00:45:35;;;;;;;20.63;5.97;;;;;;;10.71;42.71;101946.16;5033914;28;20049;-72
2021/04/23 00:48:05;;;;;;;19.02;5.47;;;;;;;10.69;43.18;101944.78;5052325;28;20493;-74
2021/04/23 00:50:38;;;;;;;26.50;6.53;;;;;;;10.64;43.21;101950.34;5051903;28;20045;-72
2021/04/23 00:53:08;;;;;;;15.57;5.55;;;;;;;10.64;43.42;101947.56;5051863;28;20063;-74
2021/04/23 00:55:36;;;;;;;25.00;6.88;;;;;;;10.69;43.42;101940.13;5034258;28;20532;-75
2021/04/23 00:58:11;;;;;;;20.05;6.10;;;;;;;10.51;43.44;101946.28;5053872;28;20049;-75
2021/04/23 01:00:41;;;;;;;19.77;6.40;;;;;;;10.43;43.66;101948.78;5038813;28;20057;-75
2021/04/23 01:03:10;;;;;;;17.70;6.27;;;;;;;10.56;43.78;101949.03;5058819;28;20055;-73
2021/04/23 01:05:40;;;;;;;19.98;5.50;;;;;;;10.47;43.98;101942.44;5041572;28;20060;-73
2021/04/23 01:08:08;;;;;;;19.50;5.45;;;;;;;10.48;44.09;101946.03;5056586;28;20044;-74
2021/04/23 01:10:35;;;;;;;18.98;6.10;;;;;;;10.36;44.18;101946.34;5053468;28;20059;-75
2021/04/23 01:13:03;;;;;;;23.88;5.85;;;;;;;10.36;44.29;101949.09;5052863;28;20053;-74
2021/04/23 01:15:29;;;;;;;20.98;5.97;;;;;;;10.40;44.24;101952.13;5053117;28;20045;-75
2021/04/23 01:17:57;;;;;;;23.27;5.85;;;;;;;10.43;44.26;101946.88;5052316;28;20037;-74
2021/04/23 01:25:00;;;;;;;13.70;5.47;;;;;;;10.44;44.13;101953.22;5056558;28;20044;-73
2021/04/23 01:27:28;;;;;;;19.33;5.95;;;;;;;10.57;44.50;101947.91;5054482;28;20511;-74
2021/04/23 01:29:55;;;;;;;19.73;6.03;;;;;;;10.63;44.50;101957.81;5055640;28;20416;-74
2021/04/23 01:32:22;;;;;;;17.77;6.10;;;;;;;10.42;44.45;101960.91;5054846;28;20052;-73
2021/04/23 01:34:48;;;;;;;19.20;6.03;;;;;;;10.23;44.80;101956.03;5055258;28;20530;-74
2021/04/23 01:37:15;;;;;;;23.63;6.82;;;;;;;10.40;44.82;101961.22;5055341;28;20056;-74
2021/04/23 01:39:44;;;;;;;17.02;5.28;;;;;;;10.79;44.05;101962.09;5038737;28;20049;-73
2021/04/23 01:42:12;;;;;;;15.85;5.80;;;;;;;10.83;44.13;101963.19;5055289;28;20049;-76
2021/04/23 01:44:40;;;;;;;20.20;5.97;;;;;;;10.75;43.28;101955.53;5055731;28;20045;-75
2021/04/23 01:47:08;;;;;;;16.35;5.60;;;;;;;10.57;44.24;101958.91;5055547;28;20049;-75
2021/04/23 01:49:36;;;;;;;18.30;6.25;;;;;;;10.64;43.93;101958.59;5020461;28;20416;-74
2021/04/23 01:52:09;;;;;;;16.10;5.53;;;;;;;10.51;44.25;101965.56;5054868;28;20045;-73
2021/04/23 01:54:37;;;;;;;17.00;6.22;;;;;;;10.59;43.94;101964.97;5054974;28;20056;-72
2021/04/23 01:57:06;;;;;;;19.67;6.28;;;;;;;10.48;44.40;101966.13;5055039;28;20052;-75
2021/04/23 01:59:34;;;;;;;20.48;5.95;;;;;;;10.55;43.93;101963.09;5054499;28;20117;-72
2021/04/23 02:02:03;;;;;;;19.80;5.53;;;;;;;10.54;44.34;101961.41;5054936;28;20480;-74
2021/04/23 02:04:31;;;;;;;14.98;5.22;;;;;;;10.55;45.39;101958.38;5036510;28;20060;-74
2021/04/23 02:06:59;;;;;;;16.90;5.40;;;;;;;10.84;44.88;101966.78;5053564;28;20053;-75
2021/04/23 02:09:26;;;;;;;19.20;5.53;;;;;;;11.25;45.66;101974.47;5036419;28;20385;-75
2021/04/23 02:11:54;;;;;;;20.85;5.60;;;;;;;11.12;43.04;101972.34;5055146;28;20048;-74
2021/04/23 02:14:23;;;;;;;17.25;5.82;;;;;;;10.74;43.80;101967.63;5054426;28;20132;-75
2021/04/23 02:16:53;;;;;;;23.65;6.63;;;;;;;10.64;43.63;101969.63;5020087;28;20049;-73
2021/04/23 02:19:21;;;;;;;21.80;6.47;;;;;;;10.50;44.24;101969.41;5053920;28;20048;-76
2021/04/23 02:21:49;;;;;;;21.33;5.63;;;;;;;10.38;44.69;101970.84;5061027;28;20045;-73
2021/04/23 02:24:16;;;;;;;22.15;5.88;;;;;;;10.55;44.81;101974.09;5053905;28;20388;-75
2021/04/23 02:26:43;;;;;;;19.67;5.78;;;;;;;11.05;45.73;101977.38;5053481;28;20404;-74
2021/04/23 02:29:13;;;;;;;18.85;5.57;;;;;;;10.73;44.26;101970.69;5053342;28;20049;-73
2021/04/23 02:31:48;;;;;;;19.33;5.88;;;;;;;10.66;44.22;101968.25;5053448;28;20048;-75
2021/04/23 02:34:17;;;;;;;16.52;6.13;;;;;;;10.42;44.81;101963.69;5054051;28;20053;-76
2021/04/23 02:36:44;;;;;;;21.00;6.20;;;;;;;10.48;44.83;101979.09;5053445;28;20056;-75
2021/04/23 02:39:15;;;;;;;18.90;5.68;;;;;;;10.31;45.04;101975.81;5053172;28;20057;-74
2021/04/23 02:41:43;;;;;;;20.20;5.70;;;;;;;10.15;45.58;101980.56;5053330;28;20059;-74
2021/04/23 02:44:11;;;;;;;21.05;5.55;;;;;;;10.07;45.83;101979.19;5036397;28;20057;-74
2021/04/23 02:46:38;;;;;;;21.02;6.40;;;;;;;10.17;45.70;101983.88;5053880;28;20485;-74
2021/04/23 02:49:06;;;;;;;21.90;5.90;;;;;;;10.01;46.36;101988.56;5052684;28;20392;-75
2021/04/23 02:51:37;;;;;;;22.90;6.22;;;;;;;10.06;45.74;101990.47;5036236;28;20492;-73
2021/04/23 02:54:04;;;;;;;;;;;;;;;10.00;45.94;101997.09;5053844;28;20484;-72
2021/04/23 02:56:33;;;;;;;14.48;5.78;;;;;;;9.81;46.52;101991.38;5035480;28;19928;-74
2021/04/23 02:59:03;;;;;;;19.15;6.32;;;;;;;9.82;46.22;101993.00;5051491;28;20057;-75
2021/04/23 03:01:35;;;;;;;18.05;5.25;;;;;;;9.85;46.16;101994.38;5053436;28;20056;-74
2021/04/23 03:04:04;;;;;;;20.90;6.55;;;;;;;9.64;46.85;102004.56;5053795;28;20381;-74
2021/04/23 03:06:31;;;;;;;21.35;5.80;;;;;;;9.68;47.10;101986.41;5053260;28;20049;-74
2021/04/23 03:08:58;;;;;;;19.83;6.28;;;;;;;9.79;46.76;101993.56;5051733;28;20053;-74
2021/04/23 03:11:26;;;;;;;16.00;5.97;;;;;;;9.86;46.27;101996.03;5053936;28;20045;-76
2021/04/23 03:13:56;;;;;;;22.00;6.32;;;;;;;10.09;45.89;101995.47;5053323;28;20063;-75
2021/04/23 03:16:24;;;;;;;21.40;6.30;;;;;;;9.92;46.50;101995.72;5034834;28;20052;-76
2021/04/23 03:18:52;;;;;;;19.05;5.38;;;;;;;10.31;47.17;101992.34;5034790;28;20052;-73
2021/04/23 03:21:27;;;;;;;20.60;6.10;;;;;;;10.20;47.08;101994.31;5053253;28;20052;-75
2021/04/23 03:23:56;;;;;;;19.20;5.82;;;;;;;10.68;46.49;101990.00;5035657;28;20037;-73
2021/04/23 03:26:24;;;;;;;19.02;6.00;;;;;;;10.75;45.98;101996.03;5053441;28;20048;-74
2021/04/23 03:28:51;;;;;;;19.98;5.78;;;;;;;10.78;44.57;101988.03;5053257;28;20048;-75
2021/04/23 03:31:19;;;;;;;15.00;5.22;;;;;;;10.75;48.47;101987.75;5052781;28;20053;-74
2021/04/23 03:33:46;;;;;;;21.75;5.85;;;;;;;10.61;45.42;101990.31;5053059;28;20044;-75
2021/04/23 03:40:51;;;;;;;23.08;5.97;;;;;;;10.18;46.55;101991.03;5052299;28;20056;-75
2021/04/23 03:43:18;;;;;;;17.92;6.10;;;;;;;10.27;47.98;101991.28;5034258;28;20060;-73
2021/04/23 03:45:48;;;;;;;27.10;7.32;;;;;;;9.98;46.63;101989.13;5052742;28;20053;-74
2021/04/23 03:48:15;;;;;;;18.75;6.22;;;;;;;10.08;46.84;101999.28;5052770;28;20049;-74
2021/04/23 03:50:44;;;;;;;23.38;6.22;;;;;;;10.08;46.82;101991.88;5034992;28;20071;-73
2021/04/23 03:53:13;;;;;;;18.67;6.07;;;;;;;10.23;46.53;101995.69;5052522;28;20049;-72
2021/04/23 03:55:43;;;;;;;14.73;5.93;;;;;;;9.89;47.10;102000.97;5051934;28;20136;-73
2021/04/23 03:58:10;;;;;;;17.73;5.93;;;;;;;9.73;47.34;101996.56;5034200;28;20075;-73
2021/04/23 04:00:53;;;;;;;17.98;6.00;;;;;;;9.72;47.21;101997.69;5034970;28;20059;-73
2021/04/23 04:03:21;;;;;;;14.85;5.50;;;;;;;9.71;47.48;101996.84;5052586;28;20048;-74
2021/04/23 04:05:48;;;;;;;15.60;5.80;;;;;;;9.69;47.44;102001.00;5052539;28;20045;-76
2021/04/23 04:08:15;;;;;;;22.20;6.60;;;;;;;9.82;47.38;102003.16;5052359;28;20045;-74
2021/04/23 04:10:42;;;;;;;22.98;6.22;;;;;;;9.59;48.91;101993.56;5034689;28;20045;-75
2021/04/23 04:13:09;;;;;;;16.48;6.25;;;;;;;9.96;47.44;101996.00;5053177;28;20048;-74
2021/04/23 04:15:37;;;;;;;21.42;6.55;;;;;;;9.97;47.87;101995.72;5053160;28;20060;-74
2021/04/23 04:18:06;;;;;;;20.85;6.38;;;;;;;9.93;46.91;101991.06;5051826;28;20475;-73
2021/04/23 04:20:36;;;;;;;26.65;6.63;;;;;;;9.79;47.31;101989.97;5052125;28;20057;-74
2021/04/23 04:23:14;;;;;;;19.38;6.50;;;;;;;9.88;48.23;101988.31;5052013;28;20053;-76
2021/04/23 04:25:43;;;;;;;18.55;5.85;;;;;;;9.63;47.89;101994.66;5052508;28;20056;-76
2021/04/23 04:28:11;;;;;;;15.88;6.13;;;;;;;9.75;48.13;101989.69;5052562;28;20045;-73
2021/04/23 04:30:38;;;;;;;21.08;6.65;;;;;;;9.58;47.30;102002.94;5051091;28;20484;-75
2021/04/23 04:33:06;;;;;;;17.60;6.20;;;;;;;9.64;47.54;102003.75;5052595;28;20392;-75
2021/04/23 04:35:33;;;;;;;19.88;6.15;;;;;;;9.62;47.77;102015.03;5052176;28;20053;-75
2021/04/23 04:38:00;;;;;;;18.60;6.07;;;;;;;9.66;49.52;102012.56;5052245;28;20424;-72
2021/04/23 04:40:29;;;;;;;20.38;6.60;;;;;;;9.81;47.55;102018.03;5051955;28;20064;-75
2021/04/23 04:42:56;;;;;;;15.50;6.40;;;;;;;9.80;47.62;102011.72;5050812;28;20384;-75
2021/04/23 04:45:25;;;;;;;24.13;7.43;;;;;;;9.80;47.45;102010.88;5033732;28;20049;-73
2021/04/23 04:47:52;;;;;;;23.67;6.72;;;;;;;9.52;47.84;102009.50;5051589;28;20057;-74
2021/04/23 04:50:27;;;;;;;18.90;6.10;;;;;;;9.51;47.60;102015.28;5051827;28;20404;-74
2021/04/23 04:52:56;;;;;;;20.45;6.72;;;;;;;9.18;49.02;102013.06;5051982;28;20052;-74
2021/04/23 04:55:31;;;;;;;18.40;7.35;;;;;;;9.50;48.25;102021.91;5034724;28;20052;-73
2021/04/23 04:57:59;;;;;;;18.20;6.47;;;;;;;9.83;48.94;102018.59;5053885;28;20041;-72
2021/04/23 05:00:28;;;;;;;17.20;6.68;;;;;;;9.93;47.60;102016.66;5055715;28;20064;-72
2021/04/23 05:02:56;;;;;;;23.13;6.97;;;;;;;9.80;47.99;102021.88;5056750;28;20128;-75
2021/04/23 05:05:24;;;;;;;18.58;7.50;;;;;;;9.66;47.82;102029.06;5056501;28;20045;-75
2021/04/23 05:07:51;;;;;;;21.02;6.85;;;;;;;9.57;48.02;102016.97;5037383;28;20048;-75
2021/04/23 05:10:18;;;;;;;18.88;6.70;;;;;;;9.11;49.76;102021.59;5055396;28;20045;-75
2021/04/23 05:12:45;;;;;;;21.08;7.05;;;;;;;9.25;49.38;102019.97;5055820;28;20037;-71
2021/04/23 05:15:14;;;;;;;26.33;7.80;;;;;;;9.35;49.59;102008.13;5056790;28;20049;-74
2021/04/23 05:17:41;;;;;;;30.98;7.72;;;;;;;9.20;49.57;102019.13;5056486;28;20041;-74
2021/04/23 05:20:15;;;;;;;23.33;7.88;;;;;;;9.40;48.63;102011.72;5038264;28;20053;-75
2021/04/23 05:22:43;;;;;;;20.25;7.13;;;;;;;9.75;48.25;102024.63;5038081;28;20045;-72
2021/04/23 05:25:13;;;;;;;16.55;7.20;;;;;;;9.90;47.29;102025.44;5037755;28;20053;-75
2021/04/23 05:27:40;;;;;;;28.48;7.78;;;;;;;10.18;49.82;102024.09;5037059;28;20053;-74
2021/04/23 05:30:14;;;;;;;21.02;7.50;;;;;;;10.07;46.99;102019.66;5054232;28;20527;-75
2021/04/23 05:32:42;;;;;;;21.02;7.60;;;;;;;9.74;47.20;102025.75;5054724;28;20399;-75
2021/04/23 05:35:11;;;;;;;21.50;7.68;;;;;;;9.81;47.20;102032.63;5037428;28;20053;-73
2021/04/23 05:37:38;;;;;;;20.00;7.15;;;;;;;9.71;47.12;102040.88;5055251;28;20044;-74
2021/04/23 05:40:08;;;;;;;21.25;7.50;;;;;;;9.83;47.11;102038.66;5055523;28;20056;-73
2021/04/23 05:42:35;;;;;;;18.23;7.00;;;;;;;9.77;47.14;102045.28;5055231;28;20055;-75
2021/04/23 05:45:03;;;;;;;22.70;7.38;;;;;;;9.87;47.82;102044.44;5054016;28;20052;-74
2021/04/23 05:47:30;;;;;;;20.35;7.28;;;;;;;10.03;46.89;102046.09;5055384;28;20041;-72
2021/04/23 05:50:03;;;;;;;25.92;7.35;;;;;;;9.84;46.74;102056.84;5054669;28;20059;-73
2021/04/23 05:52:31;;;;;;;20.83;7.38;;;;;;;9.75;47.77;102054.91;5021407;28;20059;-72
2021/04/23 05:54:58;;;;;;;24.70;8.18;;;;;;;9.65;47.56;102057.66;5036634;28;20057;-74
2021/04/23 05:57:25;;;;;;;18.38;7.50;;;;;;;9.71;47.05;102057.38;5037325;28;20526;-74
2021/04/23 05:59:52;;;;;;;18.63;7.65;;;;;;;9.75;48.90;102063.16;5057733;28;20045;-75
2021/04/23 06:02:19;;;;;;;19.27;7.63;;;;;;;10.00;47.97;102057.66;5043397;28;20049;-77
2021/04/23 06:04:46;;;;;;;25.48;7.57;;;;;;;10.06;48.09;102064.78;5060796;28;20052;-75
2021/04/23 06:11:49;;;;;;;18.08;7.25;;;;;;;10.18;61.09;102077.19;5055467;28;20087;-74
2021/04/23 06:14:16;;;;;;;21.42;7.95;;;;;;;10.39;50.79;102075.22;5053421;28;20049;-77
2021/04/23 06:16:43;;;;;;;19.83;8.18;;;;;;;10.35;47.47;102074.16;5053806;28;20049;-76
2021/04/23 06:19:10;;;;;;;14.95;7.50;;;;;;;10.62;58.54;102077.38;5052786;28;20053;-76
2021/04/23 06:21:37;;;;;;;24.92;9.77;;;;;;;10.56;47.28;102073.00;5036706;28;20045;-74
2021/04/23 06:24:05;;;;;;;30.27;8.68;;;;;;;10.55;48.10;102074.09;5053699;28;20041;-75
2021/04/23 06:26:32;;;;;;;24.20;8.73;;;;;;;10.42;47.79;102071.09;5053888;28;20468;-77
2021/04/23 06:28:59;;;;;;;26.77;8.75;;;;;;;10.67;53.41;102074.59;5054491;28;20500;-76
2021/04/23 06:31:26;;;;;;;28.55;8.65;;;;;;;10.17;46.38;102069.22;5036306;28;20045;-75
2021/04/23 06:33:53;;;;;;;25.83;8.43;;;;;;;10.12;47.46;102074.75;5053816;28;20055;-75
2021/04/23 06:36:21;;;;;;;22.15;8.15;;;;;;;9.97;47.00;102080.22;5053869;28;20479;-76
2021/04/23 06:38:49;;;;;;;21.40;8.60;;;;;;;9.83;47.64;102074.44;5054317;28;20055;-72
2021/04/23 06:41:17;;;;;;;27.13;8.82;;;;;;;10.03;47.44;102077.19;5035567;28;20385;-75
2021/04/23 06:43:44;;;;;;;23.98;9.25;;;;;;;9.97;47.21;102081.03;5054018;28;20057;-73
2021/04/23 06:46:13;;;;;;;24.88;9.27;;;;;;;10.03;47.33;102079.13;5053573;28;20056;-75
2021/04/23 06:48:47;;;;;;;20.35;8.80;;;;;;;10.13;47.25;102084.63;5020531;28;20064;-76
2021/04/23 06:51:16;;;;;;;29.80;8.52;;;;;;;10.29;46.89;102082.72;5054939;28;20511;-73
2021/04/23 06:53:49;;;;;;;28.23;10.38;;;;;;;10.01;46.63;102081.31;5052882;28;20441;-76
2021/04/23 06:56:17;;;;;;;27.20;9.50;;;;;;;10.30;46.03;102085.19;5020871;28;20053;-79
2021/04/23 06:58:46;;;;;;;30.30;9.38;;;;;;;10.30;46.02;102087.09;5052157;28;20037;-78
2021/04/23 07:01:16;;;;;;;27.02;9.43;;;;;;;10.42;45.55;102084.88;5052414;28;20044;-77
2021/04/23 07:03:44;;;;;;;30.42;9.18;;;;;;;10.40;45.69;102085.16;5034691;28;20049;-75
2021/04/23 07:06:11;;;;;;;32.08;8.98;;;;;;;10.33;45.58;102097.56;5052989;28;20113;-75
2021/04/23 07:08:39;;;;;;;23.35;8.80;;;;;;;10.35;46.61;102095.34;5036256;28;20049;-75
2021/04/23 07:11:06;;;;;;;21.33;8.70;;;;;;;10.64;45.61;102096.38;5053119;28;20045;-76
2021/04/23 07:13:33;;;;;;;24.13;8.57;;;;;;;10.68;44.97;102087.28;5035420;28;20049;-71
2021/04/23 07:16:00;;;;;;;28.58;8.57;;;;;;;10.94;46.24;102094.34;5053336;28;20045;-76
2021/04/23 07:18:28;;;;;;;18.65;7.53;;;;;;;11.22;45.54;102087.31;5053382;28;20400;-79
2021/04/23 07:20:56;;;;;;;23.63;9.65;;;;;;;11.23;45.63;102091.69;5053075;28;20041;-73
2021/04/23 07:23:23;;;;;;;26.75;9.60;;;;;;;11.04;44.08;102088.78;5035284;28;20340;-76
2021/04/23 07:25:50;;;;;;;25.35;9.10;;;;;;;10.88;44.54;102095.47;5052419;28;20053;-74
2021/04/23 07:28:17;;;;;;;24.85;9.27;;;;;;;10.91;44.70;102105.91;5052609;28;20052;-73
2021/04/23 07:30:45;;;;;;;20.92;9.10;;;;;;;10.57;44.74;102095.84;5034431;28;20048;-73
2021/04/23 07:33:13;;;;;;;23.42;8.88;;;;;;;10.84;44.18;102096.31;5035875;28;20065;-76
2021/04/23 07:40:18;;;;;;;23.48;8.57;;;;;;;11.30;44.01;102100.50;5052702;28;20049;-74
2021/04/23 07:42:45;;;;;;;22.75;8.95;;;;;;;11.31;43.01;102091.91;5051663;28;20049;-73
2021/04/23 07:45:13;;;;;;;31.48;8.82;;;;;;;11.46;42.66;102087.41;5052696;28;20060;-71
2021/04/23 07:47:42;;;;;;;24.88;10.18;;;;;;;11.41;42.94;102084.69;5052652;28;20052;-73
2021/04/23 07:50:17;;;;;;;32.60;10.85;;;;;;;11.29;42.88;102093.34;5052615;28;20052;-76
2021/04/23 07:57:09;;;;;;;21.58;8.75;;;;;;;11.25;42.84;102093.06;5052522;28;20037;-77
2021/04/23 07:59:39;;;;;;;26.67;7.90;;;;;;;11.45;43.26;102092.13;5034707;28;20052;-76
2021/04/23 08:02:08;;;;;;;24.30;8.13;;;;;;;11.82;42.32;102091.63;5052307;28;20041;-74
2021/04/23 08:04:38;;;;;;;25.55;8.93;;;;;;;11.81;43.30;102084.44;5034253;28;20049;-76
2021/04/23 08:07:06;;;;;;;27.38;10.32;;;;;;;12.12;41.77;102086.66;5034606;28;20041;-74
2021/04/23 08:09:35;;;;;;;27.15;8.75;;;;;;;12.19;41.14;102091.84;5051902;28;20072;-76
2021/04/23 08:12:02;;;;;;;22.63;8.63;;;;;;;12.41;42.28;102097.72;5052377;28;20066;-73
2021/04/23 08:14:30;;;;;;;19.77;7.80;;;;;;;12.31;41.21;102098.63;5052394;28;20385;-74
2021/04/23 08:16:57;;;;;;;26.40;9.32;;;;;;;12.27;40.84;102088.47;5034514;28;20064;-72
2021/04/23 08:19:24;;;;;;;19.98;8.55;;;;;;;12.56;42.09;102094.78;5052243;28;20049;-74
2021/04/23 08:21:52;;;;;;;26.58;8.02;;;;;;;12.58;40.46;102094.47;5049950;28;20063;-72
2021/04/23 08:24:19;;;;;;;20.75;8.48;;;;;;;12.57;40.51;102088.13;5033998;28;20511;-72
2021/04/23 08:26:47;;;;;;;21.17;8.98;;;;;;;12.46;40.13;102087.41;5033655;28;20408;-74
2021/04/23 08:29:14;;;;;;;26.67;8.43;;;;;;;12.71;42.76;102088.25;5051660;28;20053;-76
2021/04/23 08:31:42;;;;;;;24.65;8.32;;;;;;;12.68;39.68;102081.38;5033289;28;20049;-78
2021/04/23 08:34:10;;;;;;;29.45;8.77;;;;;;;12.39;40.08;102077.84;5051212;28;20049;-75
2021/04/23 08:36:38;;;;;;;26.83;9.88;;;;;;;12.50;39.98;102073.03;5033527;28;20056;-77
2021/04/23 08:39:08;;;;;;;25.90;8.98;;;;;;;12.41;40.10;102081.94;5051680;28;20041;-73
2021/04/23 08:41:36;;;;;;;25.48;8.27;;;;;;;12.42;40.27;102091.88;5034087;28;20045;-75
2021/04/23 08:44:05;;;;;;;34.30;8.40;;;;;;;12.38;40.15;102089.97;5034401;28;20374;-75
2021/04/23 08:46:36;;;;;;;24.50;7.95;;;;;;;12.40;39.97;102088.59;5052051;28;20047;-76
2021/04/23 08:49:05;;;;;;;24.95;8.73;;;;;;;12.61;39.76;102086.41;5034241;28;20049;-76
2021/04/23 08:51:34;;;;;;;24.25;9.02;;;;;;;12.63;40.73;102086.13;5051518;28;20048;-76
2021/04/23 08:54:02;;;;;;;17.63;7.27;;;;;;;12.70;39.40;102083.84;5051984;28;20052;-77
2021/04/23 08:56:30;;;;;;;23.00;8.20;;;;;;;12.78;39.08;102089.53;5051812;28;20045;-76
2021/04/23 08:58:56;;;;;;;28.85;7.80;;;;;;;12.62;38.99;102088.09;5051326;28;20503;-79
2021/04/23 09:01:25;;;;;;;22.27;8.15;;;;;;;12.72;39.14;102087.97;5051930;28;20445;-77
2021/04/23 09:03:53;;;;;;;27.80;8.57;;;;;;;12.76;38.95;102080.69;5033387;28;20053;-77
2021/04/23 09:06:26;;;;;;;26.08;8.32;;;;;;;12.86;38.80;102082.53;5050871;28;20394;-74
2021/04/23 09:13:31;;;;;;;22.48;7.88;;;;;;;13.15;37.66;102092.41;5050341;28;20048;-77
2021/04/23 09:15:58;;;;;;;27.00;8.25;;;;;;;13.32;37.68;102084.41;5033550;28;20488;-75
2021/04/23 09:18:25;;;;;;;21.63;7.50;;;;;;;13.51;37.64;102079.72;5051807;28;20098;-77
2021/04/23 09:21:14;;;;;;;22.52;7.40;;;;;;;13.70;35.72;102073.34;5051283;28;20068;-75
2021/04/23 09:23:59;;;;;;;14.50;6.13;;;;;;;13.61;34.84;102077.91;5051270;28;20053;-78
2021/04/23 09:26:39;;;;;;;17.30;6.82;;;;;;;13.83;35.94;102080.88;5033705;28;20049;-75
2021/04/23 09:29:22;;;;;;;14.02;5.22;;;;;;;14.13;37.44;102078.41;5033722;28;20049;-75
2021/04/23 09:31:48;;;;;;;24.00;6.28;;;;;;;14.18;34.86;102089.41;5034246;28;20048;-76
2021/04/23 09:34:17;;;;;;;22.00;6.80;;;;;;;13.77;34.77;102093.16;5051314;28;20049;-76
2021/04/23 09:36:46;;;;;;;18.63;7.13;;;;;;;13.62;34.46;102093.38;5050283;28;20056;-77
2021/04/23 09:39:21;;;;;;;26.05;7.18;;;;;;;13.54;34.91;102078.28;5017421;28;20060;-78
2021/04/23 09:41:54;;;;;;;18.55;6.75;;;;;;;13.57;34.85;102084.06;5053178;28;20060;-76
2021/04/23 09:44:44;;;;;;;16.65;6.03;;;;;;;13.60;34.84;102079.84;5055018;28;20472;-79
2021/04/23 09:47:22;;;;;;;18.83;6.57;;;;;;;13.75;34.54;102090.72;5055217;28;20049;-80
2021/04/23 09:49:57;;;;;;;23.10;5.95;;;;;;;13.66;34.79;102084.19;5005087;28;20416;-78
2021/04/23 09:56:49;;;;;;;18.10;5.55;;;;;;;13.91;33.43;102069.13;5055187;28;20060;-76
2021/04/23 09:59:22;;;;;;;17.42;6.15;;;;;;;14.09;33.12;102066.28;5037546;28;20063;-76
2021/04/23 10:02:02;;;;;;;15.60;5.45;;;;;;;14.08;32.55;102064.66;5054639;28;20056;-75
2021/04/23 10:04:34;;;;;;;18.33;6.15;;;;;;;14.19;32.35;102073.63;5053042;28;20117;-76
2021/04/23 10:07:12;;;;;;;17.88;5.97;;;;;;;14.18;32.06;102070.00;5053832;28;20048;-76
2021/04/23 10:11:31;;;;;;;16.15;5.82;;;;;;;14.01;32.37;102057.84;5054434;28;20041;-76
2021/04/23 10:14:10;;;;;;;12.70;5.00;;;;;;;14.12;32.65;102056.56;5054673;28;20052;-75
2021/04/23 10:16:37;;;;;;;13.70;5.85;;;;;;;14.31;32.59;102062.88;5053310;28;20053;-77
2021/04/23 10:19:07;;;;;;;17.52;5.32;;;;;;;14.27;32.30;102057.13;5054186;28;20045;-77
2021/04/23 10:21:34;;;;;;;14.25;5.90;;;;;;;14.21;32.02;102052.75;5019439;28;20056;-70
2021/04/23 10:28:31;;;;;;;11.10;5.00;;;;;;;14.59;31.91;102045.16;5053632;28;20060;-72
2021/04/23 10:30:59;;;;;;;15.77;5.70;;;;;;;14.71;33.29;102045.44;5053874;28;20053;-76
2021/04/23 10:33:33;;;;;;;17.00;5.43;;;;;;;14.81;31.38;102053.56;5035144;28;20049;-77
2021/04/23 10:36:01;;;;;;;20.00;5.38;;;;;;;14.78;31.56;102045.88;5051864;28;20064;-75
2021/04/23 10:43:04;;;;;;;15.63;5.63;;;;;;;15.09;31.52;102041.28;5054006;28;20044;-78
2021/04/23 10:45:49;;;;;;;17.67;5.25;;;;;;;15.25;30.45;102039.00;5053531;28;20045;-77
2021/04/23 10:48:16;;;;;;;16.98;5.35;;;;;;;15.37;30.74;102031.75;5053818;28;20044;-79
2021/04/23 10:50:46;;;;;;;11.02;4.38;;;;;;;15.19;30.42;102037.44;5053486;28;20057;-77
2021/04/23 10:57:56;;;;;;;11.93;3.70;;;;;;;15.23;29.30;102032.94;5053892;28;20476;-78
2021/04/23 11:00:40;;;;;;;16.08;5.10;;;;;;;15.52;29.76;102031.41;5053899;28;20384;-76
2021/04/23 11:03:37;;;;;;;12.20;4.57;;;;;;;15.73;29.38;102017.84;5022482;28;20369;-78
2021/04/23 11:06:14;;;;;;;16.92;4.40;;;;;;;15.54;28.71;102025.53;5037832;28;20048;-79
2021/04/23 11:09:04;;;;;;;14.38;4.20;;;;;;;15.76;29.23;102029.16;5056658;28;20049;-78
2021/04/23 11:11:35;;;;;;;14.23;4.37;;;;;;;15.93;28.86;102028.44;5053940;28;20045;-74
2021/04/23 11:14:25;;;;;;;13.63;4.97;;;;;;;16.11;30.45;102023.81;5020289;28;20060;-76
2021/04/23 11:16:55;;;;;;;11.57;4.13;;;;;;;16.18;28.47;102024.19;5054375;28;20057;-75
2021/04/23 11:19:22;;;;;;;13.90;5.05;;;;;;;15.99;29.36;102026.38;5018781;28;20428;-74
2021/04/23 11:21:51;;;;;;;15.35;5.07;;;;;;;16.18;31.70;102015.84;5053190;28;20057;-73
2021/04/23 11:24:22;;;;;;;13.90;4.90;;;;;;;16.48;29.45;102015.84;5018425;28;20049;-75
2021/04/23 11:29:26;;;;;;;15.02;4.50;;;;;;;16.67;28.26;102010.81;5052995;28;20503;-75
2021/04/23 11:32:11;;;;;;;9.35;3.97;;;;;;;16.42;27.63;102005.16;5050008;28;20057;-76
2021/04/23 11:34:38;;;;;;;14.63;3.55;;;;;;;16.22;27.64;102006.53;5053047;28;20480;-74
2021/04/23 11:37:17;;;;;;;11.80;4.18;;;;;;;16.11;28.11;102001.59;5034771;28;20608;-76
2021/04/23 11:39:56;;;;;;;10.75;3.80;;;;;;;16.31;29.77;101992.66;5053132;28;20045;-70
2021/04/23 11:42:30;;;;;;;15.18;4.32;;;;;;;16.33;28.49;101990.38;5054536;28;20055;-74
2021/04/23 11:45:04;;;;;;;13.10;3.60;;;;;;;16.48;27.83;101990.81;5051733;28;20067;-77
2021/04/23 11:47:36;;;;;;;9.63;3.88;;;;;;;16.50;27.35;101988.53;5035458;28;20040;-76
2021/04/23 11:50:10;;;;;;;17.60;3.38;;;;;;;16.65;26.74;101996.41;5052015;28;20062;-77
2021/04/23 11:52:39;;;;;;;10.60;3.35;;;;;;;16.79;26.97;101987.94;5034624;28;20048;-75
2021/04/23 11:55:24;;;;;;;13.05;3.72;;;;;;;16.78;26.59;101986.31;5052005;28;20059;-75
2021/04/23 11:58:03;;;;;;;10.50;3.90;;;;;;;17.04;26.55;101981.59;5051991;28;20052;-77
2021/04/23 12:00:32;;;;;;;13.43;3.22;;;;;;;17.00;26.38;101985.38;5049960;28;20052;-69
2021/04/23 12:03:10;;;;;;;10.40;3.38;;;;;;;17.03;27.38;101985.53;5051895;28;20045;-75
2021/04/23 12:05:46;;;;;;;13.48;4.32;;;;;;;17.09;26.08;101975.03;5051880;28;20045;-73
2021/04/23 12:08:14;;;;;;;12.68;3.75;;;;;;;17.31;26.15;101969.31;5051005;28;20060;-73
2021/04/23 12:10:53;;;;;;;10.77;3.65;;;;;;;17.38;25.96;101972.44;5050637;28;20049;-76
2021/04/23 12:13:27;;;;;;;10.75;4.15;;;;;;;17.34;25.90;101963.91;5033355;28;20404;-71
2021/04/23 12:15:57;;;;;;;11.27;3.47;;;;;;;17.27;26.36;101968.34;5051080;28;20063;-72
2021/04/23 12:18:26;;;;;;;10.50;3.60;;;;;;;17.22;26.29;101969.31;5051154;28;20053;-75
2021/04/23 12:20:55;;;;;;;11.73;3.83;;;;;;;17.43;26.41;101970.31;5051087;28;20057;-73